createdAt,value
2022-10-04T00:01:45.311Z,99.90
2022-10-04T00:04:15.644Z,99.90
2022-10-04T00:06:59.809Z,99.90
2022-10-04T00:09:43.504Z,99.90
2022-10-04T00:12:21.532Z,99.90
2022-10-04T00:14:50.981Z,99.90
2022-10-04T00:17:24.449Z,99.90
2022-10-04T00:19:52.392Z,99.90
2022-10-04T00:22:25.056Z,99.90
2022-10-04T00:25:21.496Z,99.90
2022-10-04T00:28:19.658Z,99.90
2022-10-04T00:31:09.520Z,99.90
2022-10-04T00:33:36.843Z,99.90
2022-10-04T00:36:24.041Z,99.90
2022-10-04T00:39:08.670Z,99.90
2022-10-04T00:41:47.823Z,99.90
2022-10-04T00:44:43.533Z,99.90
2022-10-04T00:47:22.532Z,99.90
2022-10-04T00:49:56.966Z,99.90
2022-10-04T00:52:28.795Z,99.90
2022-10-04T00:55:00.609Z,99.90
2022-10-04T00:57:32.204Z,99.90
2022-10-04T01:00:18.062Z,99.90
2022-10-04T01:03:01.520Z,99.90
2022-10-04T01:05:42.582Z,99.90
2022-10-04T01:08:16.180Z,99.90
2022-10-04T01:10:51.927Z,99.90
2022-10-04T01:13:30.362Z,99.90
2022-10-04T01:16:03.383Z,99.90
2022-10-04T01:18:33.620Z,99.90
2022-10-04T01:21:18.990Z,99.90
2022-10-04T01:23:54.042Z,99.90
2022-10-04T01:26:29.285Z,99.90
2022-10-04T01:29:01.031Z,99.90
2022-10-04T01:31:29.665Z,99.90
2022-10-04T01:33:57.409Z,99.90
2022-10-04T01:36:24.530Z,99.90
2022-10-04T01:38:51.971Z,99.90
2022-10-04T01:41:25.667Z,99.90
2022-10-04T01:43:59.015Z,99.90
2022-10-04T01:46:36.616Z,99.90
2022-10-04T01:49:10.271Z,99.90
2022-10-04T01:51:45.694Z,99.90
2022-10-04T01:54:18.574Z,99.90
2022-10-04T01:56:52.045Z,99.90
2022-10-04T01:59:30.540Z,99.90
2022-10-04T02:02:17.337Z,99.90
2022-10-04T02:04:48.284Z,99.90
2022-10-04T02:07:16.617Z,99.90
2022-10-04T02:09:46.660Z,99.90
2022-10-04T02:12:18.861Z,99.90
2022-10-04T02:14:55.818Z,99.90
2022-10-04T02:17:28.697Z,99.90
2022-10-04T02:19:56.941Z,99.90
2022-10-04T02:22:25.585Z,99.90
2022-10-04T02:24:56.726Z,99.90
2022-10-04T02:27:31.544Z,99.90
2022-10-04T02:30:04.406Z,99.90
2022-10-04T02:32:52.780Z,99.90
2022-10-04T02:35:20.512Z,99.90
2022-10-04T02:37:58.898Z,99.90
2022-10-04T02:40:35.359Z,99.90
2022-10-04T02:43:19.366Z,99.90
2022-10-04T02:46:03.050Z,99.90
2022-10-04T02:48:50.737Z,99.90
2022-10-04T02:51:27.079Z,99.90
2022-10-04T02:54:12.561Z,99.90
2022-10-04T02:56:40.346Z,99.90
2022-10-04T02:59:08.072Z,99.90
2022-10-04T03:01:54.058Z,99.90
2022-10-04T03:04:41.399Z,99.90
2022-10-04T03:07:09.563Z,99.90
2022-10-04T03:09:40.419Z,99.90
2022-10-04T03:12:12.687Z,99.90
2022-10-04T03:14:40.439Z,99.90
2022-10-04T03:17:08.369Z,99.90
2022-10-04T03:19:37.409Z,99.90
2022-10-04T03:22:13.593Z,99.90
2022-10-04T03:24:50.499Z,99.90
2022-10-04T03:27:25.253Z,99.90
2022-10-04T03:29:58.195Z,99.90
2022-10-04T03:32:27.307Z,99.90
2022-10-04T03:34:59.992Z,99.90
2022-10-04T03:37:29.672Z,99.90
2022-10-04T03:39:58.015Z,99.90
2022-10-04T03:42:31.636Z,99.90
2022-10-04T03:45:02.628Z,99.90
2022-10-04T03:47:38.762Z,99.90
2022-10-04T03:50:12.402Z,99.90
2022-10-04T03:52:44.283Z,99.90
2022-10-04T03:55:14.618Z,99.90
2022-10-04T03:57:41.943Z,99.90
2022-10-04T04:00:09.646Z,99.90
2022-10-04T04:02:48.100Z,99.90
2022-10-04T04:05:37.628Z,99.90
2022-10-04T04:08:12.582Z,99.90
2022-10-04T04:10:44.197Z,99.90
2022-10-04T04:13:23.534Z,99.90
2022-10-04T04:15:51.560Z,99.90
2022-10-04T04:18:24.488Z,99.90
2022-10-04T04:20:53.970Z,99.90
2022-10-04T04:23:50.477Z,99.90
2022-10-04T04:26:39.460Z,99.90
2022-10-04T04:29:22.834Z,99.90
2022-10-04T04:31:58.392Z,99.90
2022-10-04T04:34:37.708Z,99.90
2022-10-04T04:37:05.597Z,99.90
2022-10-04T04:40:11.245Z,99.90
2022-10-04T04:42:38.995Z,99.90
2022-10-04T04:45:25.813Z,99.90
2022-10-04T04:47:57.452Z,99.90
2022-10-04T04:50:30.646Z,99.90
2022-10-04T04:53:13.187Z,99.90
2022-10-04T04:56:03.355Z,99.90
2022-10-04T04:58:38.314Z,99.90
2022-10-04T05:01:31.800Z,99.90
2022-10-04T05:04:14.396Z,99.90
2022-10-04T05:06:44.609Z,99.90
2022-10-04T05:09:44.462Z,99.90
2022-10-04T05:12:27.508Z,99.90
2022-10-04T05:14:57.680Z,99.90
2022-10-04T05:17:29.577Z,99.90
2022-10-04T05:20:00.043Z,99.90
2022-10-04T05:22:28.943Z,99.90
2022-10-04T05:25:14.770Z,99.90
2022-10-04T05:27:45.072Z,99.90
2022-10-04T05:30:22.970Z,99.90
2022-10-04T05:33:02.561Z,99.90
2022-10-04T05:35:46.360Z,99.90
2022-10-04T05:38:39.981Z,99.90
2022-10-04T05:41:35.192Z,99.90
2022-10-04T05:45:19.825Z,99.90
2022-10-04T06:04:51.816Z,99.90
2022-10-04T06:11:54.706Z,99.90
2022-10-04T06:14:48.259Z,99.90
2022-10-04T06:18:05.247Z,99.90
2022-10-04T06:20:57.000Z,99.90
2022-10-04T06:23:37.222Z,99.90
2022-10-04T06:26:33.780Z,99.90
2022-10-04T06:29:14.963Z,99.90
2022-10-04T06:33:06.014Z,99.90
2022-10-04T06:36:15.645Z,99.90
2022-10-04T06:39:17.320Z,99.90
2022-10-04T06:47:55.789Z,99.90
2022-10-04T06:50:44.378Z,99.90
2022-10-04T06:53:33.960Z,99.90
2022-10-04T06:56:26.768Z,99.90
2022-10-04T06:59:51.978Z,99.90
2022-10-04T07:02:58.052Z,99.90
2022-10-04T07:06:18.604Z,99.90
2022-10-04T07:08:58.673Z,99.90
2022-10-04T07:22:04.100Z,99.90
2022-10-04T07:25:14.741Z,99.90
2022-10-04T08:03:18.829Z,99.90
2022-10-04T08:10:18.621Z,99.90
2022-10-04T08:20:50.428Z,99.90
2022-10-04T08:24:21.246Z,99.90
2022-10-04T08:27:39.031Z,99.90
2022-10-04T08:35:20.024Z,99.90
2022-10-04T09:01:25.397Z,99.90
2022-10-04T09:08:41.053Z,99.90
2022-10-04T09:11:23.479Z,99.90
2022-10-04T09:13:59.909Z,99.90
2022-10-04T09:20:26.393Z,99.90
2022-10-04T09:25:03.936Z,99.90
2022-10-04T09:30:42.758Z,99.90
2022-10-04T09:33:44.618Z,99.90
2022-10-04T09:36:42.607Z,99.90
2022-10-04T09:39:45.398Z,99.90
2022-10-04T09:43:03.863Z,99.90
2022-10-04T09:46:26.412Z,99.90
2022-10-04T09:55:48.228Z,99.90
2022-10-04T09:58:52.431Z,99.90
2022-10-04T10:06:14.027Z,99.90
2022-10-04T10:23:55.547Z,99.90
2022-10-04T10:41:45.080Z,99.90
2022-10-04T10:44:30.741Z,99.90
2022-10-04T10:47:41.687Z,99.90
2022-10-04T10:51:27.716Z,99.90
2022-10-04T10:54:52.157Z,99.90
2022-10-04T10:57:25.043Z,99.90
2022-10-04T11:00:26.651Z,99.90
2022-10-04T11:03:25.463Z,99.90
2022-10-04T11:06:30.464Z,99.90
2022-10-04T11:09:45.129Z,99.90
2022-10-04T11:12:50.498Z,99.90
2022-10-04T11:16:47.260Z,99.90
2022-10-04T11:19:34.960Z,99.90
2022-10-04T11:22:17.565Z,99.90
2022-10-04T11:25:08.196Z,99.90
2022-10-04T11:27:59.926Z,99.90
2022-10-04T11:31:54.307Z,99.90
2022-10-04T11:41:50.644Z,99.00
2022-10-04T11:44:34.405Z,99.10
2022-10-04T11:48:22.478Z,99.30
2022-10-04T11:50:55.384Z,99.30
2022-10-04T11:53:52.898Z,98.70
2022-10-04T11:56:35.537Z,97.90
2022-10-04T12:00:01.392Z,99.40
2022-10-04T12:02:47.956Z,99.10
2022-10-04T12:05:54.718Z,99.10
2022-10-04T12:08:52.231Z,99.10
2022-10-04T12:11:56.490Z,99.10
2022-10-04T12:14:25.237Z,99.00
2022-10-04T12:17:01.733Z,97.20
2022-10-04T12:20:11.239Z,97.20
2022-10-04T12:23:29.165Z,98.20
2022-10-04T12:26:25.744Z,99.20
2022-10-04T12:29:10.701Z,99.60
2022-10-04T12:31:45.303Z,99.40
2022-10-04T12:34:15.139Z,98.90
2022-10-04T12:37:24.508Z,98.80
2022-10-04T12:39:56.572Z,99.00
2022-10-04T12:42:38.212Z,99.20
2022-10-04T12:45:20.365Z,99.90
2022-10-04T12:47:49.987Z,99.90
2022-10-04T12:50:41.566Z,99.40
2022-10-04T12:53:24.331Z,99.90
2022-10-04T12:56:26.795Z,99.90
2022-10-04T12:59:04.454Z,99.90
2022-10-04T13:02:01.044Z,99.90
2022-10-04T13:04:53.275Z,99.90
2022-10-04T13:07:40.250Z,99.90
2022-10-04T13:10:25.865Z,99.90
2022-10-04T13:13:23.909Z,99.90
2022-10-04T13:19:10.041Z,99.90
2022-10-04T13:21:45.967Z,99.90
2022-10-04T13:24:42.308Z,99.90
2022-10-04T13:27:19.708Z,99.90
2022-10-04T13:30:05.824Z,99.90
2022-10-04T13:32:59.235Z,99.90
2022-10-04T13:35:49.250Z,99.90
2022-10-04T13:38:57.281Z,99.90
2022-10-04T13:41:28.040Z,99.90
2022-10-04T13:44:19.381Z,99.90
2022-10-04T13:46:50.821Z,99.90
2022-10-04T13:49:41.336Z,99.90
2022-10-04T13:52:50.806Z,99.90
2022-10-04T13:55:48.567Z,99.90
2022-10-04T13:58:18.887Z,99.90
2022-10-04T14:01:27.339Z,99.90
2022-10-04T14:04:16.102Z,99.90
2022-10-04T14:07:13.401Z,99.90
2022-10-04T14:09:55.654Z,99.90
2022-10-04T14:12:26.560Z,99.90
2022-10-04T14:15:19.304Z,99.90
2022-10-04T14:18:14.560Z,99.90
2022-10-04T14:21:19.136Z,99.90
2022-10-04T14:26:44.189Z,99.90
2022-10-04T14:29:52.259Z,99.90
2022-10-04T14:32:28.462Z,99.90
2022-10-04T14:35:05.800Z,99.90
2022-10-04T14:38:26.504Z,99.90
2022-10-04T14:41:31.924Z,99.90
2022-10-04T14:44:26.882Z,99.90
2022-10-04T14:46:57.100Z,99.90
2022-10-04T14:50:00.693Z,99.90
2022-10-04T14:52:52.445Z,99.90
2022-10-04T14:55:31.961Z,99.90
2022-10-04T14:58:15.230Z,99.90
2022-10-04T15:01:09.422Z,99.90
2022-10-04T15:03:56.105Z,99.90
2022-10-04T15:06:31.248Z,99.90
2022-10-04T15:09:19.144Z,99.90
2022-10-04T15:15:08.565Z,99.90
2022-10-04T15:17:51.619Z,99.90
2022-10-04T15:20:32.514Z,99.90
2022-10-04T15:23:09.008Z,99.90
2022-10-04T15:26:04.033Z,99.90
2022-10-04T15:28:45.029Z,99.90
2022-10-04T15:31:18.441Z,99.90
2022-10-04T15:33:57.763Z,99.90
2022-10-04T15:36:35.732Z,99.90
2022-10-04T15:39:17.995Z,99.90
2022-10-04T15:42:16.048Z,99.90
2022-10-04T15:45:01.831Z,99.90
2022-10-04T15:47:56.671Z,99.90
2022-10-04T15:50:34.796Z,99.90
2022-10-04T15:53:42.811Z,99.90
2022-10-04T15:56:36.800Z,99.90
2022-10-04T15:59:20.903Z,99.90
2022-10-04T16:01:55.669Z,99.90
2022-10-04T16:05:43.994Z,99.90
2022-10-04T16:08:22.622Z,99.90
2022-10-04T16:11:26.444Z,99.90
2022-10-04T16:14:01.309Z,99.90
2022-10-04T16:17:05.100Z,99.90
2022-10-04T16:23:34.165Z,99.90
2022-10-04T16:26:07.602Z,99.90
2022-10-04T16:28:55.484Z,99.90
2022-10-04T16:31:51.294Z,99.90
2022-10-04T16:34:45.986Z,99.90
2022-10-04T16:37:26.206Z,99.90
2022-10-04T16:40:06.659Z,99.90
2022-10-04T16:42:53.525Z,99.90
2022-10-04T16:45:38.750Z,99.90
2022-10-04T16:48:24.464Z,99.90
2022-10-04T16:51:34.799Z,99.90
2022-10-04T16:54:56.078Z,99.90
2022-10-04T16:57:37.846Z,99.90
2022-10-04T17:00:40.902Z,99.90
2022-10-04T17:06:17.131Z,99.90
2022-10-04T17:08:51.159Z,99.90
2022-10-04T17:11:30.744Z,99.90
2022-10-04T17:14:24.591Z,99.90
2022-10-04T17:17:03.686Z,99.90
2022-10-04T17:20:05.831Z,99.90
2022-10-04T17:23:06.812Z,99.90
2022-10-04T17:25:57.329Z,99.90
2022-10-04T17:28:40.419Z,99.90
2022-10-04T17:31:42.517Z,99.90
2022-10-04T17:34:39.296Z,99.90
2022-10-04T17:37:41.632Z,99.90
2022-10-04T17:40:29.484Z,99.90
2022-10-04T17:43:21.962Z,99.90
2022-10-04T17:46:08.638Z,99.90
2022-10-04T17:49:07.032Z,99.90
2022-10-04T17:52:13.765Z,99.90
2022-10-04T17:55:12.125Z,99.90
2022-10-04T17:57:50.607Z,99.90
2022-10-04T18:00:27.678Z,99.90
2022-10-04T18:03:22.698Z,99.90
2022-10-04T18:06:03.464Z,99.90
2022-10-04T18:08:44.241Z,99.90
2022-10-04T18:11:27.534Z,99.90
2022-10-04T18:14:05.068Z,99.90
2022-10-04T18:16:56.769Z,99.90
2022-10-04T18:19:50.312Z,99.90
2022-10-04T18:22:20.385Z,99.90
2022-10-04T18:25:05.074Z,99.90
2022-10-04T18:27:33.755Z,99.90
2022-10-04T18:30:21.892Z,99.90
2022-10-04T18:32:58.599Z,99.90
2022-10-04T18:35:39.640Z,99.90
2022-10-04T18:38:10.164Z,99.90
2022-10-04T18:40:55.549Z,99.90
2022-10-04T18:43:35.825Z,99.90
2022-10-04T18:46:21.947Z,99.90
2022-10-04T18:48:57.515Z,99.90
2022-10-04T18:51:26.000Z,99.90
2022-10-04T18:54:16.867Z,99.90
2022-10-04T18:57:18.561Z,99.90
2022-10-04T19:00:20.944Z,99.90
2022-10-04T19:03:19.240Z,99.90
2022-10-04T19:06:06.276Z,99.90
2022-10-04T19:08:37.903Z,99.90
2022-10-04T19:11:29.145Z,99.90
2022-10-04T19:14:24.984Z,99.90
2022-10-04T19:16:56.016Z,99.90
2022-10-04T19:19:35.660Z,99.90
2022-10-04T19:22:14.927Z,99.90
2022-10-04T19:25:18.209Z,99.90
2022-10-04T19:27:57.930Z,99.90
2022-10-04T19:30:34.587Z,99.90
2022-10-04T19:33:16.431Z,99.90
2022-10-04T19:36:14.712Z,99.90
2022-10-04T19:39:12.461Z,99.90
2022-10-04T19:41:57.118Z,99.90
2022-10-04T19:44:53.119Z,99.90
2022-10-04T19:47:20.598Z,99.90
2022-10-04T19:50:06.624Z,99.90
2022-10-04T19:52:58.107Z,99.90
2022-10-04T19:55:48.011Z,99.90
2022-10-04T19:58:38.368Z,99.90
2022-10-04T20:01:13.574Z,99.90
2022-10-04T20:03:41.000Z,99.90
2022-10-04T20:06:09.249Z,99.90
2022-10-04T20:09:11.659Z,99.90
2022-10-04T20:11:38.859Z,99.90
2022-10-04T20:14:08.547Z,99.90
2022-10-04T20:16:48.652Z,99.90
2022-10-04T20:19:28.133Z,99.90
2022-10-04T20:22:13.864Z,99.90
2022-10-04T20:24:49.404Z,99.90
2022-10-04T20:27:26.182Z,99.90
2022-10-04T20:29:53.231Z,99.90
2022-10-04T20:32:31.207Z,99.90
2022-10-04T20:34:59.755Z,99.90
2022-10-04T20:38:02.937Z,99.90
2022-10-04T20:40:43.381Z,99.90
2022-10-04T20:43:16.324Z,99.90
2022-10-04T20:45:48.313Z,99.90
2022-10-04T20:48:22.968Z,99.90
2022-10-04T20:50:50.993Z,99.90
2022-10-04T20:53:24.627Z,99.90
2022-10-04T20:56:08.243Z,99.90
2022-10-04T20:58:37.444Z,99.90
2022-10-04T21:01:20.611Z,99.90
2022-10-04T21:03:47.897Z,99.90
2022-10-04T21:06:15.442Z,99.90
2022-10-04T21:08:43.163Z,99.90
2022-10-04T21:11:20.627Z,99.90
2022-10-04T21:14:33.178Z,99.90
2022-10-04T21:17:03.413Z,99.90
2022-10-04T21:19:34.122Z,99.90
2022-10-04T21:22:04.170Z,99.90
2022-10-04T21:24:41.532Z,99.90
2022-10-04T21:27:11.037Z,99.90
2022-10-04T21:29:39.130Z,99.90
2022-10-04T21:32:06.856Z,99.90
2022-10-04T21:34:52.393Z,99.90
2022-10-04T21:37:21.058Z,99.90
2022-10-04T21:39:48.133Z,99.90
2022-10-04T21:42:15.672Z,99.90
2022-10-04T21:44:42.848Z,99.90
2022-10-04T21:47:10.529Z,99.90
2022-10-04T21:49:37.874Z,99.90
2022-10-04T21:52:05.175Z,99.90
2022-10-04T21:54:32.387Z,99.90
2022-10-04T21:56:59.351Z,99.90
2022-10-04T21:59:26.302Z,99.90
2022-10-04T22:01:53.307Z,99.90
2022-10-04T22:04:20.937Z,99.90
2022-10-04T22:06:49.057Z,99.90
2022-10-04T22:09:16.461Z,99.90
2022-10-04T22:11:43.407Z,99.90
2022-10-04T22:14:10.331Z,99.90
2022-10-04T22:16:37.412Z,99.90
2022-10-04T22:19:05.199Z,99.90
2022-10-04T22:21:32.453Z,99.90
2022-10-04T22:24:01.341Z,99.90
2022-10-04T22:26:29.547Z,99.90
2022-10-04T22:28:57.063Z,99.90
2022-10-04T22:31:29.313Z,99.90
2022-10-04T22:33:56.805Z,99.90
2022-10-04T22:36:39.853Z,99.90
2022-10-04T22:39:10.221Z,99.90
2022-10-04T22:41:43.977Z,99.90
2022-10-04T22:44:14.795Z,99.90
2022-10-04T22:46:45.608Z,99.90
2022-10-04T22:49:15.941Z,99.90
2022-10-04T22:51:45.220Z,99.90
2022-10-04T22:54:27.251Z,99.90
2022-10-04T22:56:54.506Z,99.90
2022-10-04T22:59:23.158Z,99.90
2022-10-04T23:01:52.915Z,99.90
2022-10-04T23:04:25.689Z,99.90
2022-10-04T23:06:53.521Z,99.90
2022-10-04T23:09:21.127Z,99.90
2022-10-04T23:11:48.385Z,99.90
2022-10-04T23:14:15.285Z,99.90
2022-10-04T23:16:43.683Z,99.90
2022-10-04T23:19:14.825Z,99.90
2022-10-04T23:21:45.873Z,99.90
2022-10-04T23:24:18.850Z,99.90
2022-10-04T23:26:49.308Z,99.90
2022-10-04T23:29:19.820Z,99.90
2022-10-04T23:31:47.620Z,99.90
2022-10-04T23:34:24.189Z,99.90
2022-10-04T23:36:52.495Z,99.90
2022-10-04T23:39:32.407Z,99.90
2022-10-04T23:41:59.873Z,99.90
2022-10-04T23:44:37.963Z,99.90
2022-10-04T23:47:14.325Z,99.90
2022-10-04T23:49:41.692Z,99.90
2022-10-04T23:52:35.940Z,99.90
2022-10-04T23:55:10.642Z,99.90
2022-10-04T23:57:37.782Z,99.90
